Time;durP1;ratioP1;P1;durP2;ratioP2;P2;SDS_P1;SDS_P2;PMS_P1;PMS_P2;Temp;Humidity;BMP_temperature;BMP_pressure;BME280_temperature;BME280_humidity;BME280_pressure;Samples;Min_cycle;Max_cycle;Signal;HPM_P1;HPM_P2
2021/06/27 00:00:25;;;;;;;58.47;51.97;;;;;;;;;;2039908;29;20237;-79
2021/06/27 00:01:26;;;;;;;57.90;51.63;;;;;;;;;;2031731;29;20551;-88
2021/06/27 00:02:27;;;;;;;58.17;50.43;;;;;;;;;;2032504;29;20543;-78
2021/06/27 00:03:28;;;;;;;56.77;50.67;;;;;;;;;;2039847;29;20454;-79
2021/06/27 00:04:30;;;;;;;58.77;51.53;;;;;;;;;;2039484;29;20285;-79
2021/06/27 00:05:33;;;;;;;56.10;50.23;;;;;;;;;;2039767;29;20466;-79
2021/06/27 00:06:33;;;;;;;58.70;50.27;;;;;;;;;;2040009;29;20462;-79
2021/06/27 00:07:35;;;;;;;60.00;52.13;;;;;;;;;;2039927;29;20494;-79
2021/06/27 00:08:36;;;;;;;61.70;52.25;;;;;;;;;;2032001;29;20230;-79
2021/06/27 00:09:40;;;;;;;62.73;53.00;;;;;;;;;;2032081;29;20224;-80
2021/06/27 00:10:41;;;;;;;65.80;54.77;;;;;;;;;;2040342;29;20234;-79
2021/06/27 00:11:43;;;;;;;60.90;52.93;;;;;;;;;;2039916;29;20470;-79
2021/06/27 00:12:44;;;;;;;65.87;53.00;;;;;;;;;;2039544;29;20518;-79
2021/06/27 00:13:47;;;;;;;61.40;53.37;;;;;;;;;;2039789;29;20510;-79
2021/06/27 00:14:47;;;;;;;60.50;52.92;;;;;;;;;;2039818;29;20275;-78
2021/06/27 00:15:51;;;;;;;64.67;54.77;;;;;;;;;;2039547;29;20222;-79
2021/06/27 00:16:53;;;;;;;60.88;51.25;;;;;;;;;;2039535;28;20293;-79
2021/06/27 00:17:55;;;;;;;58.65;51.17;;;;;;;;;;2040542;28;20226;-79
2021/06/27 00:18:56;;;;;;;61.42;50.83;;;;;;;;;;2040729;28;20231;-79
2021/06/27 00:19:59;;;;;;;59.50;51.73;;;;;;;;;;2039438;29;20226;-79
2021/06/27 00:21:02;;;;;;;59.63;51.97;;;;;;;;;;2032163;29;20219;-79
2021/06/27 00:22:04;;;;;;;56.00;49.47;;;;;;;;;;2032252;29;20223;-79
2021/06/27 00:23:05;;;;;;;58.05;49.47;;;;;;;;;;2032025;29;20702;-79
2021/06/27 00:24:07;;;;;;;53.60;47.77;;;;;;;;;;2039947;29;20393;-79
2021/06/27 00:25:08;;;;;;;60.35;51.80;;;;;;;;;;2038905;29;20636;-79
2021/06/27 00:26:11;;;;;;;60.55;52.22;;;;;;;;;;2039543;29;20234;-79
2021/06/27 00:27:11;;;;;;;59.10;50.40;;;;;;;;;;2039916;29;20385;-79
2021/06/27 00:28:14;;;;;;;61.47;51.00;;;;;;;;;;2039691;29;20219;-79
2021/06/27 00:29:15;;;;;;;58.07;50.67;;;;;;;;;;2031883;29;20223;-79
2021/06/27 00:30:17;;;;;;;61.37;51.70;;;;;;;;;;2039887;29;20451;-79
2021/06/27 00:31:18;;;;;;;62.83;50.50;;;;;;;;;;2039630;29;20230;-79
2021/06/27 00:32:20;;;;;;;61.05;52.00;;;;;;;;;;2039639;29;20218;-80
2021/06/27 00:33:22;;;;;;;60.20;50.67;;;;;;;;;;2047647;28;20221;-79
2021/06/27 00:34:23;;;;;;;63.28;50.85;;;;;;;;;;2038696;29;20459;-79
2021/06/27 00:35:26;;;;;;;58.83;49.63;;;;;;;;;;2039148;29;20230;-79
2021/06/27 00:36:27;;;;;;;61.87;48.70;;;;;;;;;;2039711;29;20230;-79
2021/06/27 00:37:28;;;;;;;67.10;51.03;;;;;;;;;;2039797;29;20803;-79
2021/06/27 00:38:29;;;;;;;62.70;52.37;;;;;;;;;;2039255;29;20267;-79
2021/06/27 00:39:30;;;;;;;67.38;54.70;;;;;;;;;;2031975;29;20255;-79
2021/06/27 00:40:32;;;;;;;67.07;53.40;;;;;;;;;;2031649;29;20242;-79
2021/06/27 00:41:33;;;;;;;67.18;53.80;;;;;;;;;;2039685;29;20245;-78
2021/06/27 00:42:34;;;;;;;72.90;54.77;;;;;;;;;;2039673;29;20227;-80
2021/06/27 00:43:35;;;;;;;72.90;57.10;;;;;;;;;;2039833;29;20215;-78
2021/06/27 00:44:36;;;;;;;82.50;57.13;;;;;;;;;;2040593;28;20973;-78
2021/06/27 00:45:37;;;;;;;83.93;54.80;;;;;;;22.40;100.00;124524.53;2039168;29;20655;-80
2021/06/27 00:46:39;;;;;;;77.67;57.13;;;;;;;;;;2039402;29;20222;-78
2021/06/27 00:47:40;;;;;;;73.95;57.90;;;;;;;;;;2039505;29;20475;-79
2021/06/27 00:48:42;;;;;;;75.22;57.40;;;;;;;;;;2031748;29;20489;-79
2021/06/27 00:49:42;;;;;;;74.00;55.67;;;;;;;;;;2031837;29;20227;-79
2021/06/27 00:50:47;;;;;;;72.13;57.33;;;;;;;22.40;100.00;124524.53;2031802;29;20251;-78
2021/06/27 00:51:48;;;;;;;64.90;56.40;;;;;;;;;;2039725;29;20234;-79
2021/06/27 00:52:50;;;;;;;69.87;58.73;;;;;;;;;;2039674;29;20766;-79
2021/06/27 00:53:52;;;;;;;69.25;53.85;;;;;;;;;;2039554;29;20289;-79
2021/06/27 00:54:54;;;;;;;63.40;52.95;;;;;;;;;;2039918;28;20690;-79
2021/06/27 00:55:54;;;;;;;58.03;51.78;;;;;;;;;;2039281;29;20245;-78
2021/06/27 00:56:56;;;;;;;62.47;53.63;;;;;;;;;;2039515;29;20226;-79
2021/06/27 00:57:58;;;;;;;65.15;54.50;;;;;;;;;;2047551;28;20805;-79
2021/06/27 00:59:00;;;;;;;66.07;53.28;;;;;;;;;;2040348;28;20227;-79
2021/06/27 01:00:01;;;;;;;66.82;55.38;;;;;;;;;;2039545;29;20317;-78
2021/06/27 01:01:05;;;;;;;60.67;54.00;;;;;;;;;;2039436;29;20234;-79
2021/06/27 01:02:06;;;;;;;65.82;54.10;;;;;;;22.40;100.00;124524.53;2039556;29;20688;-79
2021/06/27 01:03:08;;;;;;;61.53;52.80;;;;;;;;;;2038954;29;20702;-80
2021/06/27 01:04:09;;;;;;;62.05;54.35;;;;;;;;;;2031718;29;20738;-79
2021/06/27 01:05:12;;;;;;;64.13;53.33;;;;;;;;;;2031518;29;20663;-79
2021/06/27 01:06:14;;;;;;;67.53;53.22;;;;;;;;;;2031885;29;20255;-79
2021/06/27 01:07:15;;;;;;;65.60;54.83;;;;;;;;;;2031689;29;20230;-79
2021/06/27 01:08:17;;;;;;;59.80;53.03;;;;;;;;;;2039634;29;20247;-79
2021/06/27 01:09:18;;;;;;;63.43;54.23;;;;;;;;;;2039434;29;20669;-79
2021/06/27 01:10:20;;;;;;;63.13;52.13;;;;;;;22.40;100.00;124524.53;2039376;29;20470;-79
2021/06/27 01:11:21;;;;;;;70.15;52.78;;;;;;;;;;2040096;28;20257;-79
2021/06/27 01:12:23;;;;;;;66.80;54.65;;;;;;;;;;2039752;28;20632;-79
2021/06/27 01:13:24;;;;;;;72.20;55.05;;;;;;;22.40;100.00;124524.53;2039265;29;20809;-80
2021/06/27 01:14:25;;;;;;;64.78;53.83;;;;;;;;;;2039611;29;20600;-79
2021/06/27 01:15:27;;;;;;;68.70;53.93;;;;;;;;;;2040110;28;20285;-79
2021/06/27 01:16:28;;;;;;;69.03;54.17;;;;;;;;;;2039321;29;20277;-79
2021/06/27 01:17:29;;;;;;;67.73;57.23;;;;;;;;;;2039553;29;20285;-79
2021/06/27 01:18:30;;;;;;;83.18;58.13;;;;;;;22.40;100.00;124524.53;2039374;29;20625;-79
2021/06/27 01:19:32;;;;;;;68.83;56.67;;;;;;;;;;2031437;29;20227;-79
2021/06/27 01:20:35;;;;;;;69.85;54.88;;;;;;;22.40;100.00;124524.53;2031367;29;20231;-79
2021/06/27 01:21:38;;;;;;;70.80;56.15;;;;;;;22.40;100.00;124524.53;2031686;29;20227;-79
2021/06/27 01:22:39;;;;;;;68.30;54.80;;;;;;;22.40;100.00;124524.53;2038878;29;20227;-79
2021/06/27 01:23:41;;;;;;;68.50;55.78;;;;;;;22.40;100.00;57650.69;2039302;29;20238;-79
2021/06/27 01:24:42;;;;;;;74.20;54.00;;;;;;;22.40;100.00;124260.38;2039308;29;20269;-79
2021/06/27 01:25:45;;;;;;;68.47;57.23;;;;;;;;;;2040160;28;20225;-79
2021/06/27 01:26:45;;;;;;;69.50;55.72;;;;;;;;;;2040218;28;20223;-79
2021/06/27 01:27:47;;;;;;;89.10;57.87;;;;;;;22.40;100.00;124524.53;2039330;29;20226;-79
2021/06/27 01:28:47;;;;;;;76.68;57.60;;;;;;;;;;2031594;29;20796;-79
2021/06/27 01:29:49;;;;;;;75.40;58.30;;;;;;;22.40;100.00;124260.38;2031517;29;20750;-79
2021/06/27 01:30:50;;;;;;;71.25;56.35;;;;;;;;;;2039373;29;20227;-79
2021/06/27 01:31:51;;;;;;;74.50;58.67;;;;;;;;;;2040078;28;20282;-79
2021/06/27 01:32:53;;;;;;;78.07;58.80;;;;;;;;;;2038243;29;20689;-79
2021/06/27 01:33:55;;;;;;;73.72;59.10;;;;;;;22.40;100.00;124524.53;2039340;29;20227;-79
2021/06/27 01:34:56;;;;;;;71.25;55.47;;;;;;;22.40;100.00;124524.53;2039264;29;20314;-79
2021/06/27 01:35:57;;;;;;;70.50;56.30;;;;;;;;;;2039385;29;20258;-79
2021/06/27 01:36:59;;;;;;;80.53;58.40;;;;;;;-144.27;100.00;91346.41;2039410;29;20255;-79
2021/06/27 01:38:02;;;;;;;78.60;57.72;;;;;;;22.40;100.00;124524.53;2039305;29;20227;-78
2021/06/27 01:39:03;;;;;;;74.25;57.65;;;;;;;;;;2039312;29;20234;-79
2021/06/27 01:40:07;;;;;;;70.35;55.72;;;;;;;22.40;100.00;124524.53;2039558;29;20309;-79
2021/06/27 01:41:08;;;;;;;90.55;59.03;;;;;;;22.40;100.00;124524.53;2038328;29;20310;-79
2021/06/27 01:42:10;;;;;;;73.78;59.58;;;;;;;22.40;100.00;124524.53;2039294;29;20234;-79
2021/06/27 01:43:14;;;;;;;86.70;59.80;;;;;;;22.40;100.00;124524.53;2039217;29;20254;-79
2021/06/27 01:44:16;;;;;;;73.78;57.50;;;;;;;;;;2039404;29;20222;-79
2021/06/27 01:45:17;;;;;;;78.43;59.15;;;;;;;;;;2039972;28;20694;-79
2021/06/27 01:46:20;;;;;;;72.80;59.10;;;;;;;14.81;nan;99187.81;2040177;29;20309;-79
2021/06/27 01:47:25;;;;;;;76.28;58.17;;;;;;;;;;2040747;29;20226;-78
2021/06/27 01:48:27;;;;;;;95.97;57.80;;;;;;;14.77;nan;99165.38;2040137;29;20226;-79
2021/06/27 01:49:28;;;;;;;88.03;57.17;;;;;;;;;;2040816;29;20259;-79
2021/06/27 01:50:30;;;;;;;92.93;58.37;;;;;;;;;;2040875;29;20222;-79
2021/06/27 01:51:31;;;;;;;82.13;57.72;;;;;;;;;;2040700;29;20227;-79
2021/06/27 01:52:33;;;;;;;116.82;56.50;;;;;;;;;;2041106;29;20301;-79
2021/06/27 01:53:36;;;;;;;92.97;57.13;;;;;;;;;;2040827;29;20226;-79
2021/06/27 01:54:37;;;;;;;135.73;56.10;;;;;;;;;;2040704;28;20233;-80
2021/06/27 01:55:39;;;;;;;167.98;55.92;;;;;;;;;;2040813;29;20234;-79
2021/06/27 01:56:40;;;;;;;134.90;55.42;;;;;;;;;;2040823;29;20601;-79
2021/06/27 01:57:41;;;;;;;169.47;57.10;;;;;;;;;;2040507;29;20223;-79
2021/06/27 01:58:43;;;;;;;150.73;58.53;;;;;;;;;;2048690;28;20304;-79
2021/06/27 01:59:47;;;;;;;169.05;59.78;;;;;;;;;;2048616;28;20230;-79
2021/06/27 02:00:47;;;;;;;165.75;59.20;;;;;;;;;;2040702;29;20681;-79
2021/06/27 02:01:49;;;;;;;131.40;58.00;;;;;;;;;;2032913;29;20600;-79
2021/06/27 02:02:50;;;;;;;143.77;57.67;;;;;;;14.42;nan;99176.16;2032788;29;20255;-80
2021/06/27 02:03:51;;;;;;;101.90;57.80;;;;;;;14.57;nan;99173.00;2040755;29;20701;-80
2021/06/27 02:04:52;;;;;;;94.45;59.13;;;;;;;;;;2040450;29;20237;-80
2021/06/27 02:05:58;;;;;;;125.15;58.53;;;;;;;;;;2040844;29;20223;-79
2021/06/27 02:06:59;;;;;;;92.97;56.90;;;;;;;;;;2032631;29;20226;-80
2021/06/27 02:08:02;;;;;;;122.60;60.30;;;;;;;;;;2040723;29;20246;-80
2021/06/27 02:09:05;;;;;;;104.18;57.35;;;;;;;;;;2040696;29;20231;-80
2021/06/27 02:10:07;;;;;;;102.50;58.13;;;;;;;14.67;nan;99188.78;2040904;29;20231;-79
2021/06/27 02:11:09;;;;;;;90.20;56.88;;;;;;;;;;2040251;29;20231;-79
2021/06/27 02:12:10;;;;;;;105.13;58.35;;;;;;;;;;2040901;29;20234;-79
2021/06/27 02:13:11;;;;;;;108.70;56.25;;;;;;;;;;2044893;28;20261;-80
2021/06/27 02:14:13;;;;;;;122.57;58.50;;;;;;;;;;2040632;29;20227;-80
2021/06/27 02:15:13;;;;;;;81.78;55.42;;;;;;;;;;2040578;29;20222;-79
2021/06/27 02:16:15;;;;;;;76.40;54.50;;;;;;;;;;2040423;29;20222;-80
2021/06/27 02:17:16;;;;;;;101.30;56.22;;;;;;;;;;2040895;29;20697;-77
2021/06/27 02:18:28;;;;;;;74.70;52.83;;;;;;;;;;2040803;29;20588;-80
2021/06/27 02:19:28;;;;;;;132.88;55.65;;;;;;;;;;2041736;28;20740;-78
2021/06/27 02:20:30;;;;;;;85.20;52.30;;;;;;;;;;2040509;29;20667;-80
2021/06/27 02:21:31;;;;;;;76.90;52.35;;;;;;;;;;2032684;29;20640;-78
2021/06/27 02:22:33;;;;;;;85.10;54.10;;;;;;;;;;2032328;29;20718;-79
2021/06/27 02:23:35;;;;;;;78.63;54.25;;;;;;;14.69;nan;99165.09;2040425;29;20230;-79
2021/06/27 02:24:37;;;;;;;106.65;51.60;;;;;;;;;;2048585;28;20226;-79
2021/06/27 02:25:37;;;;;;;74.00;52.72;;;;;;;;;;2039845;29;20254;-80
2021/06/27 02:26:39;;;;;;;74.13;52.80;;;;;;;;;;2040701;29;20231;-78
2021/06/27 02:27:39;;;;;;;80.07;51.40;;;;;;;;;;2040463;29;20227;-79
2021/06/27 02:28:41;;;;;;;84.00;53.50;;;;;;;;;;2040454;28;20233;-78
2021/06/27 02:29:42;;;;;;;79.15;53.30;;;;;;;;;;2049006;28;20681;-78
2021/06/27 02:30:44;;;;;;;84.03;54.53;;;;;;;;;;2040463;29;20568;-79
2021/06/27 02:31:48;;;;;;;62.88;56.03;;;;;;;;;;2040568;29;20251;-78
2021/06/27 02:32:50;;;;;;;93.68;54.88;;;;;;;;;;2040620;29;20238;-80
2021/06/27 02:33:50;;;;;;;79.32;53.60;;;;;;;14.25;nan;99138.63;2040663;29;20770;-78
2021/06/27 02:34:55;;;;;;;76.27;54.03;;;;;;;;;;2040472;29;20657;-79
2021/06/27 02:35:56;;;;;;;68.93;54.75;;;;;;;;;;2040167;29;20238;-78
2021/06/27 02:36:57;;;;;;;64.73;53.43;;;;;;;;;;2032413;29;20679;-78
2021/06/27 02:37:58;;;;;;;67.10;52.35;;;;;;;;;;2032627;29;20762;-78
2021/06/27 02:39:01;;;;;;;63.97;53.93;;;;;;;;;;2040450;29;20641;-79
2021/06/27 02:40:02;;;;;;;63.28;53.35;;;;;;;14.60;nan;99161.66;2044265;28;20222;-79
2021/06/27 02:41:04;;;;;;;63.08;53.30;;;;;;;14.57;nan;99172.22;2040263;29;20228;-79
2021/06/27 02:42:05;;;;;;;59.20;52.08;;;;;;;;;;2040573;29;20231;-79
2021/06/27 02:43:07;;;;;;;64.47;53.33;;;;;;;14.66;nan;99175.69;2040554;29;20231;-79
2021/06/27 02:44:07;;;;;;;61.90;52.70;;;;;;;;;;2032002;29;20232;-80
2021/06/27 02:45:10;;;;;;;57.67;51.47;;;;;;;;;;2040565;29;20234;-79
2021/06/27 02:46:10;;;;;;;58.47;52.10;;;;;;;;;;2040374;29;20551;-79
2021/06/27 02:47:15;;;;;;;58.20;51.90;;;;;;;;;;2032554;29;20338;-79
2021/06/27 02:48:16;;;;;;;57.83;51.72;;;;;;;;;;2041280;29;20701;-80
2021/06/27 02:49:22;;;;;;;58.50;52.33;;;;;;;;;;2049096;28;20565;-80
2021/06/27 02:50:23;;;;;;;59.05;50.78;;;;;;;;;;2048701;28;20250;-78
2021/06/27 02:51:25;;;;;;;60.73;50.17;;;;;;;;;;2039951;29;20227;-79
2021/06/27 02:52:25;;;;;;;57.08;51.03;;;;;;;;;;2032679;29;20234;-79
2021/06/27 02:53:27;;;;;;;57.93;51.73;;;;;;;;;;2032665;29;20254;-79
2021/06/27 02:54:29;;;;;;;53.38;47.60;;;;;;;;;;2040258;29;20227;-79
2021/06/27 02:55:30;;;;;;;57.17;50.28;;;;;;;;;;2048400;28;20226;-79
2021/06/27 02:56:32;;;;;;;54.35;48.50;;;;;;;;;;2048871;28;20226;-79
2021/06/27 02:57:33;;;;;;;54.67;48.13;;;;;;;;;;2039600;29;20577;-79
2021/06/27 02:58:35;;;;;;;56.78;50.13;;;;;;;;;;2032560;29;20255;-78
2021/06/27 02:59:36;;;;;;;55.90;49.95;;;;;;;;;;2032748;29;20240;-79
2021/06/27 03:00:37;;;;;;;57.00;50.42;;;;;;;;;;2032203;29;20729;-80
2021/06/27 03:01:39;;;;;;;55.77;49.93;;;;;;;14.70;nan;99171.25;2032593;29;20695;-79
2021/06/27 03:02:40;;;;;;;56.38;50.38;;;;;;;;;;2032133;29;20232;-79
2021/06/27 03:03:42;;;;;;;56.03;50.03;;;;;;;;;;2040354;29;20817;-79
2021/06/27 03:04:43;;;;;;;57.33;50.55;;;;;;;;;;2032626;29;20227;-79
2021/06/27 03:05:44;;;;;;;59.50;52.17;;;;;;;;;;2040448;29;20677;-79
2021/06/27 03:06:45;;;;;;;62.30;53.97;;;;;;;14.38;nan;99154.53;2048903;28;20246;-79
2021/06/27 03:07:47;;;;;;;61.30;53.80;;;;;;;14.35;nan;99171.31;2040277;29;20226;-79
2021/06/27 03:08:47;;;;;;;60.05;53.28;;;;;;;;;;2040440;29;20218;-79
2021/06/27 03:09:50;;;;;;;63.37;55.40;;;;;;;;;;2048941;28;20248;-79
2021/06/27 03:10:51;;;;;;;101.28;53.70;;;;;;;;;;2040163;29;20733;-79
2021/06/27 03:11:52;;;;;;;108.37;52.80;;;;;;;;;;2039808;29;20644;-80
2021/06/27 03:12:53;;;;;;;125.13;53.53;;;;;;;;;;2039969;29;20601;-79
2021/06/27 03:13:56;;;;;;;121.53;54.33;;;;;;;;;;2032442;29;20231;-79
2021/06/27 03:14:56;;;;;;;68.80;52.72;;;;;;;;;;2032581;29;20243;-79
2021/06/27 03:15:58;;;;;;;68.93;54.83;;;;;;;;;;2040441;29;20234;-79
2021/06/27 03:16:59;;;;;;;73.22;54.00;;;;;;;14.19;nan;99135.31;2040360;29;20255;-79
2021/06/27 03:18:00;;;;;;;73.93;54.23;;;;;;;;;;2040125;29;20226;-79
2021/06/27 03:19:01;;;;;;;64.85;56.00;;;;;;;;;;2040298;29;20313;-79
2021/06/27 03:20:02;;;;;;;70.20;56.00;;;;;;;;;;2040906;28;20241;-79
2021/06/27 03:21:03;;;;;;;67.82;55.50;;;;;;;;;;2040160;29;20218;-79
2021/06/27 03:22:05;;;;;;;62.27;54.37;;;;;;;;;;2032308;29;20306;-79
2021/06/27 03:23:06;;;;;;;62.05;54.67;;;;;;;;;;2040223;29;20811;-79
2021/06/27 03:24:07;;;;;;;63.10;55.43;;;;;;;;;;2040913;28;20638;-79
2021/06/27 03:25:10;;;;;;;66.82;55.25;;;;;;;;;;2039822;29;20359;-79
2021/06/27 03:26:11;;;;;;;62.03;55.05;;;;;;;;;;2040338;29;20651;-79
2021/06/27 03:27:12;;;;;;;62.03;55.25;;;;;;;;;;2041007;28;20242;-78
2021/06/27 03:28:14;;;;;;;62.20;54.73;;;;;;;;;;2041038;28;20229;-79
2021/06/27 03:29:14;;;;;;;62.78;54.83;;;;;;;;;;2040092;29;20686;-79
2021/06/27 03:30:16;;;;;;;61.30;54.30;;;;;;;;;;2032148;29;20366;-79
2021/06/27 03:31:17;;;;;;;64.63;54.95;;;;;;;;;;2032440;29;20235;-79
2021/06/27 03:32:18;;;;;;;66.90;56.07;;;;;;;;;;2040343;29;20247;-79
2021/06/27 03:33:19;;;;;;;61.92;54.78;;;;;;;;;;2040197;29;20686;-79
2021/06/27 03:34:21;;;;;;;91.77;55.70;;;;;;;;;;2032247;29;20650;-79
2021/06/27 03:35:22;;;;;;;124.38;57.17;;;;;;;;;;2039892;28;20234;-80
2021/06/27 03:36:23;;;;;;;107.50;57.80;;;;;;;;;;2039935;29;20254;-79
2021/06/27 03:37:24;;;;;;;119.53;56.70;;;;;;;14.25;nan;99193.09;2032215;29;20231;-79
2021/06/27 03:38:29;;;;;;;95.83;57.17;;;;;;;;;;2032274;29;20230;-79
2021/06/27 03:39:29;;;;;;;79.40;55.65;;;;;;;;;;2032839;29;20231;-79
2021/06/27 03:40:32;;;;;;;155.73;56.90;;;;;;;;;;2032160;29;20233;-79
2021/06/27 03:41:36;;;;;;;148.93;55.50;;;;;;;14.23;nan;99119.34;2032233;29;20219;-79
2021/06/27 03:42:38;;;;;;;125.85;56.75;;;;;;;;;;2039630;29;20222;-80
2021/06/27 03:43:38;;;;;;;66.35;55.42;;;;;;;;;;2032279;29;20291;-80
2021/06/27 03:44:40;;;;;;;150.87;60.27;;;;;;;;;;2040227;29;20227;-79
2021/06/27 03:45:40;;;;;;;129.52;63.05;;;;;;;;;;2040826;28;20231;-79
2021/06/27 03:46:42;;;;;;;130.37;58.80;;;;;;;;;;2040087;29;20313;-79
2021/06/27 03:47:43;;;;;;;74.63;55.90;;;;;;;;;;2032255;29;20700;-80
2021/06/27 03:48:44;;;;;;;89.70;59.60;;;;;;;;;;2032236;29;20552;-80
2021/06/27 03:49:45;;;;;;;81.07;59.10;;;;;;;;;;2040026;29;20231;-79
2021/06/27 03:50:47;;;;;;;90.53;58.63;;;;;;;22.40;100.00;57745.03;2040057;29;20226;-80
2021/06/27 03:51:47;;;;;;;100.72;59.85;;;;;;;;;;2040028;29;20231;-80
2021/06/27 03:52:49;;;;;;;115.83;59.30;;;;;;;;;;2040722;28;20225;-79
2021/06/27 03:53:50;;;;;;;95.35;58.33;;;;;;;;;;2039999;29;20238;-79
2021/06/27 03:54:51;;;;;;;80.43;58.10;;;;;;;;;;2039960;29;20250;-79
2021/06/27 03:55:58;;;;;;;75.25;56.00;;;;;;;;;;2040150;28;20234;-80
2021/06/27 03:56:58;;;;;;;79.55;57.60;;;;;;;14.43;nan;99145.56;2040838;28;20586;-80
2021/06/27 03:58:00;;;;;;;69.47;56.87;;;;;;;;;;2040627;28;20314;-80
2021/06/27 03:59:01;;;;;;;70.82;54.63;;;;;;;14.60;nan;99176.97;2039696;29;20608;-79
2021/06/27 04:00:02;;;;;;;71.70;55.60;;;;;;;;;;2032117;29;20379;-79
2021/06/27 04:01:12;;;;;;;61.22;54.10;;;;;;;;;;2039834;28;20289;-80
2021/06/27 04:02:13;;;;;;;59.13;49.43;;;;;;;;;;2040883;28;20222;-80
2021/06/27 04:03:14;;;;;;;54.33;48.13;;;;;;;;;;2040605;28;20251;-79
2021/06/27 04:04:15;;;;;;;54.20;47.40;;;;;;;;;;2040976;28;20242;-80
2021/06/27 04:05:16;;;;;;;59.92;49.53;;;;;;;;;;2039585;29;20586;-79
2021/06/27 04:06:18;;;;;;;54.17;47.77;;;;;;;;;;2032012;29;20219;-79
2021/06/27 04:07:18;;;;;;;56.60;49.20;;;;;;;15.37;nan;99130.16;2032188;29;20231;-79
2021/06/27 04:08:20;;;;;;;56.10;49.27;;;;;;;;;;2039889;29;20243;-79
2021/06/27 04:09:20;;;;;;;55.65;49.42;;;;;;;;;;2040643;28;20277;-80
2021/06/27 04:10:22;;;;;;;59.73;49.97;;;;;;;;;;2040577;28;20756;-77
2021/06/27 04:11:24;;;;;;;54.08;47.97;;;;;;;;;;2040198;28;20696;-80
2021/06/27 04:12:25;;;;;;;56.05;46.42;;;;;;;;;;2040654;28;20688;-79
2021/06/27 04:13:26;;;;;;;55.78;48.03;;;;;;;;;;2045945;28;20229;-79
2021/06/27 04:14:29;;;;;;;52.73;46.90;;;;;;;-143.94;100.00;91335.28;2039912;29;20237;-79
2021/06/27 04:15:29;;;;;;;49.78;44.38;;;;;;;-144.10;100.00;91335.28;2039842;29;20479;-79
2021/06/27 04:16:32;;;;;;;49.87;44.57;;;;;;;22.40;100.00;91335.66;2039610;29;20235;-80
2021/06/27 04:17:33;;;;;;;48.88;43.53;;;;;;;;;;2039721;29;20581;-79
2021/06/27 04:18:36;;;;;;;49.40;43.70;;;;;;;;;;2039915;29;20310;-79
2021/06/27 04:19:37;;;;;;;50.03;43.10;;;;;;;;;;2047395;28;20253;-80
2021/06/27 04:20:38;;;;;;;47.70;42.50;;;;;;;;;;2047946;28;20313;-81
2021/06/27 04:21:39;;;;;;;50.78;43.92;;;;;;;15.82;nan;99108.06;2048282;28;20252;-80
2021/06/27 04:22:41;;;;;;;46.37;41.37;;;;;;;;;;2039710;29;20234;-80
2021/06/27 04:23:41;;;;;;;49.10;43.10;;;;;;;22.40;100.00;57728.81;2039647;29;20233;-79
2021/06/27 04:24:43;;;;;;;48.27;42.67;;;;;;;;;;2039751;29;20254;-79
2021/06/27 04:25:43;;;;;;;50.27;43.57;;;;;;;;;;2048228;28;20218;-80
2021/06/27 04:26:47;;;;;;;47.33;42.23;;;;;;;22.40;100.00;124524.53;2039743;29;20455;-79
2021/06/27 04:27:47;;;;;;;50.42;44.92;;;;;;;;;;2031605;29;20317;-79
2021/06/27 04:28:48;;;;;;;48.67;43.53;;;;;;;;;;2031778;29;20227;-79
2021/06/27 04:29:49;;;;;;;50.23;44.83;;;;;;;;;;2031698;29;20331;-79
2021/06/27 04:30:51;;;;;;;50.17;44.67;;;;;;;22.40;100.00;124524.53;2031797;29;20519;-79
2021/06/27 04:31:52;;;;;;;54.30;45.90;;;;;;;;;;2039113;28;20725;-81
2021/06/27 04:32:53;;;;;;;50.93;45.57;;;;;;;;;;2047477;28;20509;-80
2021/06/27 04:33:54;;;;;;;50.50;45.20;;;;;;;;;;2039675;29;20744;-79
2021/06/27 04:34:55;;;;;;;51.90;46.30;;;;;;;;;;2031855;29;20589;-79
2021/06/27 04:35:56;;;;;;;52.78;47.10;;;;;;;;;;2039700;29;20226;-79
2021/06/27 04:36:57;;;;;;;54.27;48.07;;;;;;;;;;2048269;28;20305;-79
2021/06/27 04:37:58;;;;;;;52.65;46.88;;;;;;;22.40;100.00;124524.53;2048092;28;20222;-80
2021/06/27 04:39:00;;;;;;;51.67;46.17;;;;;;;22.40;100.00;124524.53;2048284;28;20673;-80
2021/06/27 04:40:01;;;;;;;53.38;47.65;;;;;;;22.40;100.00;124524.53;2039700;29;20257;-79
2021/06/27 04:41:02;;;;;;;53.90;48.00;;;;;;;22.40;100.00;124524.53;2039767;29;20241;-79
2021/06/27 04:42:05;;;;;;;53.47;47.72;;;;;;;22.40;100.00;124524.53;2039369;29;20231;-80
2021/06/27 04:43:07;;;;;;;52.88;47.25;;;;;;;;;;2031923;29;20235;-80
2021/06/27 04:44:08;;;;;;;55.25;49.22;;;;;;;;;;2039149;29;20227;-80
2021/06/27 04:45:10;;;;;;;55.47;49.50;;;;;;;22.40;0.00;61738.25;2039587;29;20238;-79
2021/06/27 04:46:11;;;;;;;55.17;49.40;;;;;;;22.40;100.00;124524.53;2039774;29;20241;-80
2021/06/27 04:47:13;;;;;;;57.83;50.83;;;;;;;;;;2039482;29;20235;-80
2021/06/27 04:48:13;;;;;;;57.85;51.55;;;;;;;22.40;100.00;57683.19;2031717;29;20231;-78
2021/06/27 04:49:15;;;;;;;58.30;51.90;;;;;;;22.40;100.00;124524.53;2039827;29;20246;-79
2021/06/27 04:50:16;;;;;;;58.30;51.25;;;;;;;;;;2048023;28;20276;-79
2021/06/27 04:51:17;;;;;;;58.40;51.20;;;;;;;22.40;100.00;124524.53;2039450;29;20222;-80
2021/06/27 04:52:18;;;;;;;59.78;51.58;;;;;;;22.40;100.00;124524.53;2039548;29;20230;-79
2021/06/27 04:53:23;;;;;;;57.93;50.93;;;;;;;22.40;100.00;124524.53;2047643;28;20225;-80
2021/06/27 04:54:23;;;;;;;58.33;51.15;;;;;;;22.40;100.00;124524.53;2039082;29;20638;-79
2021/06/27 04:55:25;;;;;;;57.90;50.93;;;;;;;22.40;100.00;124260.38;2039753;29;20231;-79
2021/06/27 04:56:26;;;;;;;57.05;50.83;;;;;;;;;;2039399;29;20230;-80
2021/06/27 04:57:29;;;;;;;57.13;50.00;;;;;;;-144.27;100.00;69778.59;2039671;29;20261;-80
2021/06/27 04:58:29;;;;;;;57.33;50.72;;;;;;;;;;2048014;28;20233;-79
2021/06/27 04:59:31;;;;;;;60.70;52.90;;;;;;;;;;2047960;28;20226;-79
2021/06/27 05:00:31;;;;;;;60.40;52.40;;;;;;;;;;2039524;29;20697;-79
2021/06/27 05:01:33;;;;;;;56.43;49.30;;;;;;;;;;2039565;29;20553;-79
2021/06/27 05:02:34;;;;;;;59.13;50.78;;;;;;;22.40;100.00;124524.53;2047300;28;20244;-79
2021/06/27 05:03:35;;;;;;;57.87;50.93;;;;;;;;;;2039078;29;20253;-79
2021/06/27 05:04:36;;;;;;;59.83;51.88;;;;;;;22.40;100.00;124524.53;2031808;29;20224;-79
2021/06/27 05:05:37;;;;;;;57.50;51.40;;;;;;;;;;2031107;29;20227;-80
2021/06/27 05:06:38;;;;;;;60.90;51.78;;;;;;;22.40;100.00;124524.53;2031546;29;20223;-79
2021/06/27 05:07:40;;;;;;;60.70;52.43;;;;;;;22.40;100.00;124524.53;2031246;29;20674;-79
2021/06/27 05:08:40;;;;;;;61.13;52.92;;;;;;;22.40;100.00;124524.53;2031599;29;20227;-79
2021/06/27 05:09:42;;;;;;;58.17;51.83;;;;;;;22.40;100.00;124524.53;2031381;29;20265;-78
2021/06/27 05:10:43;;;;;;;61.00;51.67;;;;;;;-144.27;100.00;91340.69;2039504;29;20278;-79
2021/06/27 05:11:45;;;;;;;58.70;52.27;;;;;;;22.40;100.00;124524.53;2039358;29;20670;-79
2021/06/27 05:12:47;;;;;;;57.38;51.17;;;;;;;22.40;100.00;124524.53;2031331;29;20278;-79
2021/06/27 05:13:48;;;;;;;55.88;48.17;;;;;;;22.40;100.00;124524.53;2031668;29;20228;-79
2021/06/27 05:14:49;;;;;;;60.27;52.47;;;;;;;22.40;100.00;124524.53;2039208;29;20230;-79
2021/06/27 05:15:51;;;;;;;67.83;54.23;;;;;;;22.40;100.00;124524.53;2039275;29;20984;-79
2021/06/27 05:16:52;;;;;;;63.25;54.35;;;;;;;;;;2038985;28;20250;-79
2021/06/27 05:17:53;;;;;;;61.20;54.50;;;;;;;;;;2039383;29;20226;-80
2021/06/27 05:18:54;;;;;;;61.47;53.60;;;;;;;22.40;100.00;123732.13;2031405;29;20227;-79
2021/06/27 05:19:56;;;;;;;66.07;55.00;;;;;;;;;;2039280;29;20462;-80
2021/06/27 05:20:56;;;;;;;65.10;54.40;;;;;;;22.40;100.00;124524.53;2047502;28;20226;-79
2021/06/27 05:21:58;;;;;;;60.37;52.90;;;;;;;22.40;100.00;124524.53;2038817;29;20237;-79
2021/06/27 05:22:59;;;;;;;62.37;52.57;;;;;;;22.40;100.00;125079.44;2039397;29;20243;-79
2021/06/27 05:24:01;;;;;;;64.17;52.27;;;;;;;22.40;100.00;124524.53;2039195;29;20459;-79
2021/06/27 05:25:02;;;;;;;61.05;52.63;;;;;;;22.40;100.00;124524.53;2039482;29;20579;-79
2021/06/27 05:26:03;;;;;;;65.70;52.30;;;;;;;;;;2039298;29;20296;-79
2021/06/27 05:27:04;;;;;;;62.15;52.47;;;;;;;;;;2039511;28;20230;-79
2021/06/27 05:28:07;;;;;;;62.45;52.47;;;;;;;22.40;100.00;124524.53;2039224;29;20229;-79
2021/06/27 05:29:08;;;;;;;66.97;54.03;;;;;;;22.40;100.00;124524.53;2038877;29;20270;-79
2021/06/27 05:30:11;;;;;;;64.27;52.17;;;;;;;22.40;100.00;124524.53;2039249;29;20557;-79
2021/06/27 05:31:12;;;;;;;59.13;51.38;;;;;;;;;;2039492;29;20562;-79
2021/06/27 05:32:13;;;;;;;62.47;54.13;;;;;;;;;;2047339;28;20301;-79
2021/06/27 05:33:14;;;;;;;61.50;54.47;;;;;;;;;;2047133;28;20225;-79